Time;durP1;ratioP1;P1;durP2;ratioP2;P2;SDS_P1;SDS_P2;PMS_P1;PMS_P2;Temp;Humidity;BMP_temperature;BMP_pressure;BME280_temperature;BME280_humidity;BME280_pressure;Samples;Min_cycle;Max_cycle;Signal;HPM_P1;HPM_P2
2022/12/20 00:01:28;;;;;;;4.85;1.73;;;;;;;10.09;87.78;101230.19;5058604;28;20042;-88
2022/12/20 00:03:58;;;;;;;2.85;1.58;;;;;;;10.11;87.66;101241.66;5057795;28;20024;-88
2022/12/20 00:06:26;;;;;;;4.82;2.03;;;;;;;10.04;88.23;101233.50;5057472;28;20031;-88
2022/12/20 00:08:58;;;;;;;4.50;1.98;;;;;;;10.09;87.62;101238.31;5057766;28;20500;-88
2022/12/20 00:11:24;;;;;;;5.35;1.60;;;;;;;10.06;87.73;101231.41;5057724;28;20029;-88
2022/12/20 00:13:57;;;;;;;6.95;1.92;;;;;;;10.08;87.75;101236.63;5057617;28;20120;-88
2022/12/20 00:16:32;;;;;;;4.80;2.13;;;;;;;10.15;87.24;101240.22;5042822;28;20094;-88
2022/12/20 00:19:00;;;;;;;4.43;1.85;;;;;;;10.17;86.82;101213.72;5057448;28;20031;-88
2022/12/20 00:21:34;;;;;;;7.45;2.42;;;;;;;10.18;86.87;101224.34;5057364;28;20037;-88
2022/12/20 00:24:03;;;;;;;6.10;2.20;;;;;;;10.19;86.65;101225.22;5075770;28;20035;-88
2022/12/20 00:26:32;;;;;;;6.10;2.38;;;;;;;10.21;86.72;101225.00;5056994;28;20119;-88
2022/12/20 00:29:01;;;;;;;7.90;2.13;;;;;;;10.23;86.64;101223.78;5057072;28;20033;-88
2022/12/20 00:31:30;;;;;;;6.75;2.17;;;;;;;10.27;86.12;101214.16;5056757;28;20468;-88
2022/12/20 00:34:00;;;;;;;7.72;2.08;;;;;;;10.32;85.97;101208.16;5057879;28;20070;-89
2022/12/20 00:36:28;;;;;;;7.10;2.22;;;;;;;10.38;85.58;101220.06;5057002;28;20028;-88
2022/12/20 00:38:56;;;;;;;6.55;2.33;;;;;;;10.35;85.79;101214.03;5074619;28;20040;-88
2022/12/20 00:41:25;;;;;;;8.65;2.55;;;;;;;10.43;85.49;101210.28;5057016;28;20032;-88
2022/12/20 00:43:56;;;;;;;7.85;2.45;;;;;;;10.41;85.60;101198.81;5056656;28;20086;-88
2022/12/20 00:46:36;;;;;;;9.90;2.35;;;;;;;10.39;85.83;101192.72;5056926;28;20028;-88
2022/12/20 00:49:01;;;;;;;7.22;2.40;;;;;;;10.45;85.53;101193.78;5057482;28;20415;-88
2022/12/20 00:51:32;;;;;;;8.20;2.50;;;;;;;10.46;85.09;101190.88;5074877;28;20024;-89
2022/12/20 00:54:00;;;;;;;7.85;2.47;;;;;;;10.49;84.97;101200.47;5056644;28;20078;-91
2022/12/20 00:56:25;;;;;;;9.52;2.88;;;;;;;10.51;85.25;101206.53;5056591;28;20127;-88
2022/12/20 00:58:52;;;;;;;7.77;2.70;;;;;;;10.47;87.49;101197.16;5056693;28;20111;-88
2022/12/20 01:01:21;;;;;;;9.88;2.60;;;;;;;10.16;90.21;101203.94;5040102;28;20484;-88
2022/12/20 01:03:47;;;;;;;6.65;2.60;;;;;;;9.84;93.27;101201.72;5056865;28;20119;-89
2022/12/20 01:06:13;;;;;;;8.73;2.97;;;;;;;9.51;97.79;101208.84;5056198;28;20527;-88
2022/12/20 01:08:38;;;;;;;7.75;2.53;;;;;;;9.23;100.00;101202.44;5056834;28;20040;-89
2022/12/20 01:11:14;;;;;;;9.43;2.40;;;;;;;8.99;100.00;101203.72;5056204;28;20379;-88
2022/12/20 01:13:43;;;;;;;5.40;2.57;;;;;;;8.86;100.00;101211.69;5055806;28;20551;-88
2022/12/20 01:16:25;;;;;;;7.45;2.42;;;;;;;8.73;100.00;101224.09;5056458;28;20491;-87
2022/12/20 01:18:54;;;;;;;4.53;2.00;;;;;;;8.71;100.00;101204.53;5056061;28;20082;-88
2022/12/20 01:21:22;;;;;;;5.13;2.30;;;;;;;8.67;100.00;101205.09;5056177;28;20123;-88
2022/12/20 01:23:52;;;;;;;5.03;1.90;;;;;;;8.60;100.00;101195.03;5056408;28;20036;-87
2022/12/20 01:26:23;;;;;;;4.73;2.23;;;;;;;8.59;100.00;101201.50;5074358;28;20032;-87
2022/12/20 01:28:52;;;;;;;5.90;2.40;;;;;;;8.52;100.00;101211.41;5055738;28;20483;-88
2022/12/20 01:31:19;;;;;;;6.45;2.55;;;;;;;8.49;100.00;101210.94;5056907;28;20028;-88
2022/12/20 01:33:46;;;;;;;4.93;2.55;;;;;;;8.47;100.00;101213.84;5056205;28;20036;-87
2022/12/20 01:36:14;;;;;;;7.88;2.80;;;;;;;8.52;100.00;101213.25;5055757;28;20108;-88
2022/12/20 01:38:40;;;;;;;6.03;2.57;;;;;;;8.46;100.00;101200.50;5073494;28;20534;-87
2022/12/20 01:41:06;;;;;;;3.63;2.22;;;;;;;8.45;100.00;101198.84;5039253;28;20042;-87
2022/12/20 01:43:55;;;;;;;4.97;2.67;;;;;;;8.41;100.00;101188.41;5055920;28;20123;-87
2022/12/20 01:46:26;;;;;;;5.90;2.83;;;;;;;8.41;100.00;101187.53;5056188;28;20460;-87
2022/12/20 01:49:01;;;;;;;8.75;2.92;;;;;;;8.41;100.00;101187.53;5056095;28;20119;-86
2022/12/20 01:51:37;;;;;;;8.18;2.70;;;;;;;8.37;100.00;101186.25;5073312;28;20054;-86
2022/12/20 01:54:10;;;;;;;4.38;2.30;;;;;;;8.45;100.00;101169.13;5055764;28;20032;-87
2022/12/20 01:56:37;;;;;;;5.03;2.63;;;;;;;8.41;100.00;101172.19;5056010;28;20082;-87
2022/12/20 01:59:03;;;;;;;5.90;3.23;;;;;;;8.43;100.00;101178.22;5055868;28;20464;-87
2022/12/20 02:01:28;;;;;;;5.55;3.05;;;;;;;8.43;100.00;101162.00;5055198;28;20082;-86
2022/12/20 02:03:57;;;;;;;6.70;2.97;;;;;;;8.44;100.00;101162.84;5039113;28;20028;-88
2022/12/20 02:06:25;;;;;;;5.95;3.05;;;;;;;8.44;100.00;101173.66;5055831;28;20028;-87
2022/12/20 02:08:53;;;;;;;9.07;3.47;;;;;;;8.42;100.00;101167.59;5039801;28;20356;-87
2022/12/20 02:11:44;;;;;;;13.48;3.42;;;;;;;8.41;100.00;101163.22;5055481;28;20036;-87
2022/12/20 02:14:30;;;;;;;10.52;3.60;;;;;;;8.45;100.00;101166.41;5055378;28;20504;-87
2022/12/20 02:17:16;;;;;;;11.60;3.35;;;;;;;8.43;100.00;101147.66;5056077;28;20483;-87
2022/12/20 02:20:11;;;;;;;8.93;3.53;;;;;;;8.41;100.00;101136.16;5055570;28;20025;-86
2022/12/20 02:23:30;;;;;;;6.65;3.00;;;;;;;8.33;100.00;101123.63;5024649;28;20071;-87
2022/12/20 02:26:08;;;;;;;7.35;2.58;;;;;;;8.33;100.00;101133.63;4956365;28;20041;-86
2022/12/20 02:29:04;;;;;;;4.45;2.22;;;;;;;8.34;100.00;101146.94;5074203;28;20534;-87
2022/12/20 02:31:50;;;;;;;5.75;2.20;;;;;;;8.29;100.00;101135.03;5059601;28;20029;-87
2022/12/20 02:34:26;;;;;;;8.93;2.42;;;;;;;8.25;100.00;101134.56;5059622;28;20039;-87
2022/12/20 02:36:52;;;;;;;4.90;2.70;;;;;;;8.22;100.00;101124.13;5077384;28;20480;-87
2022/12/20 02:39:19;;;;;;;3.95;2.45;;;;;;;8.22;100.00;101122.28;5059490;28;20032;-86
2022/12/20 02:41:53;;;;;;;4.93;2.50;;;;;;;8.19;100.00;101128.09;5059296;28;20028;-87
2022/12/20 02:47:15;;;;;;;7.85;2.45;;;;;;;8.22;100.00;101129.53;5077143;28;20043;-87
2022/12/20 02:49:45;;;;;;;4.18;1.95;;;;;;;8.22;100.00;101129.53;5059536;28;20028;-88
2022/12/20 02:52:13;;;;;;;7.47;2.60;;;;;;;8.21;100.00;101112.50;5059238;28;20020;-88
2022/12/20 02:54:42;;;;;;;4.43;2.35;;;;;;;8.19;100.00;101117.28;5060005;28;20040;-87
2022/12/20 02:57:09;;;;;;;3.47;2.40;;;;;;;8.23;100.00;101112.31;5042777;28;20064;-87
2022/12/20 02:59:44;;;;;;;2.50;1.88;;;;;;;8.25;100.00;101119.19;5076486;28;20037;-88
2022/12/20 03:02:17;;;;;;;4.03;2.15;;;;;;;8.23;100.00;101107.72;5059445;28;20453;-87
2022/12/20 03:04:44;;;;;;;3.38;2.13;;;;;;;8.22;100.00;101106.06;5027272;28;20055;-88
2022/12/20 03:07:12;;;;;;;7.05;2.00;;;;;;;8.25;100.00;101121.03;5058753;28;20024;-87
2022/12/20 03:09:43;;;;;;;3.83;1.92;;;;;;;8.26;100.00;101117.31;5058627;28;20032;-86
2022/12/20 03:12:13;;;;;;;2.90;2.20;;;;;;;8.39;100.00;101105.78;5059468;28;20035;-87
2022/12/20 03:14:39;;;;;;;6.45;2.22;;;;;;;8.36;100.00;101125.13;5076110;28;20098;-87
2022/12/20 03:17:05;;;;;;;5.47;1.95;;;;;;;8.42;100.00;101114.34;5058494;28;20025;-87
2022/12/20 03:19:31;;;;;;;3.33;1.73;;;;;;;8.46;100.00;101117.53;5059154;28;20501;-86
2022/12/20 03:21:57;;;;;;;3.45;1.50;;;;;;;8.50;100.00;101132.31;5059082;28;20119;-86
2022/12/20 03:24:25;;;;;;;6.10;1.98;;;;;;;8.50;100.00;101094.47;5058338;28;20040;-86
2022/12/20 03:26:50;;;;;;;2.90;1.80;;;;;;;8.57;100.00;101113.47;5042148;28;20373;-86
2022/12/20 03:29:16;;;;;;;4.15;1.70;;;;;;;8.62;100.00;101102.88;5058446;28;20066;-87
2022/12/20 03:31:41;;;;;;;4.10;1.83;;;;;;;8.62;100.00;101094.75;5058402;28;20521;-87
2022/12/20 03:34:06;;;;;;;4.03;1.57;;;;;;;8.70;100.00;101099.22;5076012;28;20048;-87
2022/12/20 03:36:34;;;;;;;5.43;2.83;;;;;;;8.74;100.00;101097.75;5058053;28;20071;-87
2022/12/20 03:39:00;;;;;;;4.80;2.15;;;;;;;8.85;100.00;101110.75;5058448;28;20029;-87
2022/12/20 03:41:26;;;;;;;3.47;1.70;;;;;;;8.92;100.00;101108.94;5057243;28;20031;-86
2022/12/20 03:43:51;;;;;;;4.15;1.90;;;;;;;8.99;100.00;101119.81;5076275;28;20025;-86
2022/12/20 03:46:17;;;;;;;4.22;1.77;;;;;;;9.04;100.00;101117.34;5058830;28;20364;-87
2022/12/20 03:48:45;;;;;;;6.13;2.00;;;;;;;9.14;100.00;101127.81;5057981;28;20036;-87
2022/12/20 03:51:11;;;;;;;2.88;1.85;;;;;;;9.21;100.00;101120.56;5057900;28;20115;-87
2022/12/20 03:53:36;;;;;;;4.93;1.83;;;;;;;9.32;100.00;101108.34;5057776;28;20150;-87
2022/12/20 03:56:02;;;;;;;3.03;1.80;;;;;;;9.39;100.00;101117.34;5057969;28;20491;-86
2022/12/20 03:58:27;;;;;;;4.10;1.70;;;;;;;9.45;100.00;101140.06;5057728;28;20028;-87
2022/12/20 04:00:55;;;;;;;4.80;1.37;;;;;;;9.54;100.00;101102.81;5057638;28;20029;-85
2022/12/20 04:03:21;;;;;;;5.90;1.58;;;;;;;9.62;100.00;101099.91;5057945;28;20021;-87
2022/12/20 04:05:48;;;;;;;1.80;1.37;;;;;;;9.63;100.00;101104.31;5057653;28;20469;-86
2022/12/20 04:08:17;;;;;;;3.78;1.30;;;;;;;9.68;100.00;101101.81;5057544;28;20039;-86
2022/12/20 04:13:32;;;;;;;4.28;2.00;;;;;;;9.77;100.00;101106.03;5075346;28;20063;-87
2022/12/20 04:16:00;;;;;;;2.93;1.70;;;;;;;9.82;100.00;101097.28;5057965;28;20032;-87
2022/12/20 04:18:28;;;;;;;3.38;1.88;;;;;;;9.79;100.00;101095.81;5040789;28;20083;-87
2022/12/20 04:20:54;;;;;;;3.60;1.70;;;;;;;9.86;100.00;101105.81;5041619;28;20082;-87
2022/12/20 04:23:19;;;;;;;5.93;1.93;;;;;;;9.92;100.00;101105.00;5057337;28;20032;-86
2022/12/20 04:25:44;;;;;;;5.97;1.73;;;;;;;9.93;100.00;101083.09;5057492;28;20033;-87
2022/12/20 04:28:10;;;;;;;4.47;1.43;;;;;;;9.94;100.00;101101.06;5040631;28;20028;-86
2022/12/20 04:30:35;;;;;;;3.17;1.40;;;;;;;10.01;100.00;101088.34;5057410;28;20392;-87
2022/12/20 04:33:03;;;;;;;5.13;1.70;;;;;;;10.06;100.00;101089.63;5074772;28;20028;-87
2022/12/20 04:35:32;;;;;;;1.98;1.35;;;;;;;10.05;100.00;101075.22;5040755;28;20498;-86
2022/12/20 04:37:59;;;;;;;3.67;2.08;;;;;;;10.07;100.00;101092.13;5075214;28;20033;-87
2022/12/20 04:40:25;;;;;;;3.30;1.48;;;;;;;10.10;100.00;101089.00;5056809;28;20443;-87
2022/12/20 04:42:50;;;;;;;2.93;1.40;;;;;;;10.12;100.00;101088.78;5056420;28;20029;-88
2022/12/20 04:45:19;;;;;;;3.13;1.60;;;;;;;10.09;100.00;101089.19;5057455;28;20043;-87
2022/12/20 04:47:44;;;;;;;3.00;1.65;;;;;;;10.09;100.00;101083.78;5055830;28;20040;-87
2022/12/20 04:50:10;;;;;;;3.23;1.77;;;;;;;10.14;100.00;101087.53;5056785;28;20032;-87
2022/12/20 04:55:30;;;;;;;3.93;1.43;;;;;;;10.11;100.00;101087.09;5037332;28;20473;-88
2022/12/20 04:57:56;;;;;;;3.15;1.27;;;;;;;10.08;100.00;101077.50;5056799;28;20086;-87
2022/12/20 05:00:22;;;;;;;4.33;1.80;;;;;;;10.10;100.00;101074.63;5056276;28;20081;-86
2022/12/20 05:02:47;;;;;;;4.88;1.90;;;;;;;10.14;100.00;101076.69;5056480;28;20071;-87
2022/12/20 05:05:13;;;;;;;3.90;1.50;;;;;;;10.14;100.00;101067.72;5056409;28;20037;-88
2022/12/20 05:07:38;;;;;;;2.38;1.52;;;;;;;10.11;100.00;101062.69;5056374;28;20029;-87
2022/12/20 05:10:05;;;;;;;3.63;1.70;;;;;;;10.10;100.00;101063.78;5056409;28;20028;-87
2022/12/20 05:12:33;;;;;;;5.38;1.90;;;;;;;10.15;100.00;101064.78;5055911;28;20028;-88
2022/12/20 05:15:01;;;;;;;5.50;1.50;;;;;;;10.13;100.00;101063.34;5055739;28;20040;-88
2022/12/20 05:17:28;;;;;;;4.38;1.80;;;;;;;10.14;100.00;101056.88;5056121;28;20040;-87
2022/12/20 05:19:54;;;;;;;4.25;1.70;;;;;;;10.18;100.00;101050.00;5056148;28;20426;-88
2022/12/20 05:27:48;;;;;;;4.90;1.70;;;;;;;10.17;100.00;101045.59;5074673;28;20039;-87
2022/12/20 05:30:14;;;;;;;4.43;1.40;;;;;;;10.18;100.00;101033.72;5057146;28;20029;-88
2022/12/20 05:32:40;;;;;;;3.08;1.30;;;;;;;10.17;100.00;101038.31;5055973;28;20025;-88
2022/12/20 05:35:07;;;;;;;4.05;1.42;;;;;;;10.15;100.00;101034.97;5057187;28;20043;-88
2022/12/20 05:37:32;;;;;;;3.53;1.30;;;;;;;10.16;100.00;101035.81;5074283;28;20036;-87
2022/12/20 05:40:03;;;;;;;5.07;1.60;;;;;;;10.17;100.00;101030.19;5055885;28;20090;-87
2022/12/20 05:42:32;;;;;;;6.95;1.50;;;;;;;10.14;100.00;101021.63;5073762;28;20025;-87
2022/12/20 05:44:57;;;;;;;3.70;1.67;;;;;;;10.13;100.00;101022.69;5055815;28;20037;-87
2022/12/20 05:47:37;;;;;;;4.80;1.50;;;;;;;10.10;100.00;101017.69;5055593;28;20028;-87
2022/12/20 05:50:04;;;;;;;3.17;1.55;;;;;;;10.10;100.00;101028.53;5024142;28;20086;-87
2022/12/20 05:52:29;;;;;;;2.92;1.13;;;;;;;10.10;100.00;101015.78;5055463;28;20115;-87
2022/12/20 05:55:00;;;;;;;2.27;1.33;;;;;;;10.11;100.00;101008.47;5073718;28;20484;-87
2022/12/20 05:57:27;;;;;;;3.75;1.20;;;;;;;10.07;100.00;101005.38;5040134;28;20137;-87
2022/12/20 05:59:53;;;;;;;2.75;1.33;;;;;;;10.06;100.00;100997.44;5055600;28;20458;-86
2022/12/20 06:02:21;;;;;;;3.90;1.10;;;;;;;10.06;100.00;101000.97;5055516;28;20112;-87
2022/12/20 06:04:46;;;;;;;3.08;1.40;;;;;;;10.04;100.00;100994.94;5055696;28;20467;-87
2022/12/20 06:07:16;;;;;;;2.77;1.00;;;;;;;10.01;100.00;100982.63;5056444;28;20028;-87
2022/12/20 06:09:47;;;;;;;3.35;1.40;;;;;;;9.98;100.00;100971.34;5056128;28;20037;-88
2022/12/20 06:12:18;;;;;;;2.92;1.10;;;;;;;9.97;100.00;100967.81;5039206;28;20040;-87
2022/12/20 06:14:46;;;;;;;3.10;1.23;;;;;;;9.94;100.00;100962.81;5055154;28;20049;-87
2022/12/20 06:17:17;;;;;;;2.25;1.08;;;;;;;9.97;100.00;100956.97;5056036;28;20032;-87
2022/12/20 06:19:42;;;;;;;3.40;1.23;;;;;;;9.94;100.00;100970.94;5054993;28;20098;-87
2022/12/20 06:22:08;;;;;;;1.83;0.90;;;;;;;9.93;100.00;100966.56;5055452;28;20016;-87
2022/12/20 06:24:38;;;;;;;2.20;1.20;;;;;;;9.87;100.00;100959.28;5039058;28;20465;-84
2022/12/20 06:27:20;;;;;;;2.65;1.40;;;;;;;9.83;100.00;100967.00;5055632;28;20032;-89
2022/12/20 06:29:50;;;;;;;2.10;1.15;;;;;;;9.81;100.00;100973.66;5055635;28;20067;-89
2022/12/20 06:32:19;;;;;;;2.90;1.13;;;;;;;9.84;100.00;100963.22;5054772;28;20060;-89
2022/12/20 06:34:45;;;;;;;1.90;1.10;;;;;;;9.84;100.00;100973.25;5055241;28;20063;-89
2022/12/20 06:37:13;;;;;;;6.43;1.20;;;;;;;9.84;100.00;100967.81;5054667;28;20059;-88
2022/12/20 06:39:41;;;;;;;6.23;1.00;;;;;;;9.90;100.00;100977.81;5055210;28;20314;-87
2022/12/20 06:42:13;;;;;;;5.55;1.05;;;;;;;9.96;100.00;100981.59;5055275;28;20142;-85
2022/12/20 06:44:38;;;;;;;2.40;0.80;;;;;;;9.96;100.00;100965.31;5055157;28;20050;-87
2022/12/20 06:47:04;;;;;;;2.63;1.10;;;;;;;10.01;100.00;100971.78;5055119;28;20033;-88
2022/12/20 06:49:35;;;;;;;3.13;1.10;;;;;;;10.04;99.83;100967.84;5037248;28;20048;-88
2022/12/20 06:52:00;;;;;;;2.30;1.07;;;;;;;10.09;99.19;100981.59;5040062;28;20032;-86
2022/12/20 06:54:26;;;;;;;3.22;1.00;;;;;;;10.13;98.64;100976.59;5055884;28;20434;-85
2022/12/20 06:56:56;;;;;;;2.33;0.90;;;;;;;10.17;98.64;100964.25;5054981;28;20373;-85
2022/12/20 06:59:21;;;;;;;3.75;1.55;;;;;;;10.19;98.25;100979.28;5038968;28;20036;-87
2022/12/20 07:01:49;;;;;;;3.57;1.00;;;;;;;10.27;97.09;100978.22;5038439;28;20033;-85
2022/12/20 07:04:15;;;;;;;1.55;0.90;;;;;;;10.29;96.54;100968.03;5054442;28;20029;-85
2022/12/20 07:06:40;;;;;;;1.30;0.90;;;;;;;10.29;96.93;100972.59;5054715;28;20033;-85
2022/12/20 07:09:11;;;;;;;3.20;1.30;;;;;;;10.32;96.04;100978.44;5055106;28;20051;-86
2022/12/20 07:11:36;;;;;;;3.10;0.80;;;;;;;10.40;95.31;100974.69;5072504;28;20033;-85
2022/12/20 07:14:02;;;;;;;2.95;0.90;;;;;;;10.47;94.81;100980.13;5054417;28;20385;-86
2022/12/20 07:16:28;;;;;;;1.20;0.80;;;;;;;10.49;94.64;100980.75;5056732;28;20036;-86
2022/12/20 07:18:55;;;;;;;2.30;1.20;;;;;;;10.48;94.81;100990.78;5057602;28;20093;-86
2022/12/20 07:21:26;;;;;;;3.65;1.00;;;;;;;10.49;94.31;100986.16;5057795;28;20067;-86
2022/12/20 07:23:52;;;;;;;2.97;1.00;;;;;;;10.55;93.89;100981.78;5042522;28;20043;-86
2022/12/20 07:26:17;;;;;;;3.42;1.10;;;;;;;10.56;93.34;100983.47;5058499;28;20103;-85
2022/12/20 07:28:45;;;;;;;1.93;0.90;;;;;;;10.58;93.54;100976.75;5057740;28;20127;-86
2022/12/20 07:31:11;;;;;;;2.70;0.97;;;;;;;10.56;93.25;100984.28;5057299;28;20282;-86
2022/12/20 07:33:39;;;;;;;6.18;0.95;;;;;;;10.59;93.04;100981.13;5057811;28;20033;-87
2022/12/20 07:36:12;;;;;;;4.47;1.00;;;;;;;10.62;92.68;100985.31;5058389;28;20166;-86
2022/12/20 07:38:38;;;;;;;2.92;1.00;;;;;;;10.62;92.34;100988.84;5058104;28;20055;-85
2022/12/20 07:41:15;;;;;;;3.78;1.02;;;;;;;10.66;92.64;100990.09;5058012;28;20081;-86
2022/12/20 07:43:41;;;;;;;3.15;1.13;;;;;;;10.68;91.67;100992.59;5057777;28;20045;-86
2022/12/20 07:46:08;;;;;;;3.00;0.95;;;;;;;10.73;90.90;100997.38;5057296;28;20028;-86
2022/12/20 07:48:34;;;;;;;7.32;1.70;;;;;;;10.79;90.03;100986.53;5057289;28;20039;-86
2022/12/20 07:51:09;;;;;;;2.35;0.90;;;;;;;10.82;90.24;100996.94;5057782;28;20047;-86
2022/12/20 07:53:40;;;;;;;1.50;0.77;;;;;;;10.81;90.65;100995.28;5057356;28;20030;-86
2022/12/20 07:56:15;;;;;;;3.17;1.10;;;;;;;10.71;91.66;101000.31;5075514;28;20039;-86
2022/12/20 07:58:44;;;;;;;3.70;1.23;;;;;;;10.59;94.64;101008.28;5057510;28;20025;-86
2022/12/20 08:01:11;;;;;;;5.80;1.00;;;;;;;10.12;98.05;101000.13;5057455;28;20036;-87
2022/12/20 08:03:43;;;;;;;2.47;1.20;;;;;;;9.77;100.00;101013.03;5057952;28;20059;-87
2022/12/20 08:06:12;;;;;;;3.45;1.20;;;;;;;9.50;100.00;101007.56;5057292;28;20024;-87
2022/12/20 08:08:43;;;;;;;4.63;1.40;;;;;;;9.35;100.00;101013.16;5057209;28;20082;-86
2022/12/20 08:18:20;;;;;;;4.78;1.30;;;;;;;9.01;100.00;101004.06;5033194;28;20527;-84
2022/12/20 08:20:45;;;;;;;5.55;1.70;;;;;;;8.89;100.00;101006.50;5020165;28;20057;-84
2022/12/20 08:23:11;;;;;;;6.77;1.90;;;;;;;8.89;100.00;101000.28;5020897;28;20151;-85
2022/12/20 08:25:36;;;;;;;6.10;1.70;;;;;;;8.88;100.00;101014.81;5020426;28;20025;-84
2022/12/20 08:28:02;;;;;;;3.57;1.77;;;;;;;8.80;100.00;101006.84;5003937;28;20039;-85
2022/12/20 08:30:28;;;;;;;4.28;1.52;;;;;;;8.78;100.00;100999.81;5020773;28;20035;-84
2022/12/20 08:32:55;;;;;;;3.17;1.50;;;;;;;8.75;100.00;101011.03;5036839;28;20029;-84
2022/12/20 08:35:21;;;;;;;6.37;1.60;;;;;;;8.76;100.00;101003.72;5036793;28;20029;-85
2022/12/20 08:37:47;;;;;;;5.22;1.52;;;;;;;8.72;100.00;101005.16;5037301;28;20032;-84
2022/12/20 08:40:13;;;;;;;5.10;2.10;;;;;;;8.70;100.00;101018.88;5054831;28;20511;-84
2022/12/20 08:42:39;;;;;;;4.70;1.40;;;;;;;8.67;100.00;101003.06;5020517;28;20066;-85
2022/12/20 08:45:07;;;;;;;5.60;1.83;;;;;;;8.70;100.00;100999.13;5036794;28;20025;-84
2022/12/20 08:47:32;;;;;;;5.85;1.73;;;;;;;8.66;100.00;100995.97;5055054;28;20041;-85
2022/12/20 08:49:58;;;;;;;7.47;1.60;;;;;;;8.62;100.00;100994.69;5020303;28;20025;-85
2022/12/20 08:52:23;;;;;;;6.03;1.70;;;;;;;8.62;100.00;100991.16;5004058;28;20033;-85
2022/12/20 08:54:51;;;;;;;3.00;1.63;;;;;;;8.58;100.00;100994.25;5036421;28;20033;-87
2022/12/20 08:57:19;;;;;;;3.92;2.05;;;;;;;8.57;100.00;100987.16;5037442;28;20280;-86
2022/12/20 08:59:47;;;;;;;4.68;1.90;;;;;;;8.55;100.00;100991.13;5036534;28;20385;-85
2022/12/20 09:02:13;;;;;;;5.50;2.15;;;;;;;8.58;100.00;100985.31;5036161;28;20035;-85
2022/12/20 09:04:40;;;;;;;4.83;1.67;;;;;;;8.56;100.00;100990.06;5036733;28;20029;-85
2022/12/20 09:07:06;;;;;;;5.57;2.28;;;;;;;8.55;100.00;100991.13;5020048;28;20029;-84
2022/12/20 09:09:34;;;;;;;5.23;1.87;;;;;;;8.54;100.00;100982.16;5036533;28;20029;-85
2022/12/20 09:12:02;;;;;;;4.32;2.33;;;;;;;8.54;100.00;100984.03;5036475;28;20029;-85
2022/12/20 09:14:27;;;;;;;4.20;2.10;;;;;;;8.55;100.00;100977.59;5019607;28;20255;-84
2022/12/20 09:16:53;;;;;;;3.97;2.30;;;;;;;8.55;100.00;100975.72;5028869;28;20179;-85
2022/12/20 09:19:18;;;;;;;5.20;2.60;;;;;;;8.57;100.00;100979.06;5056090;28;20025;-85
2022/12/20 09:21:44;;;;;;;4.55;2.20;;;;;;;8.62;100.00;100983.03;5055989;28;20023;-84
2022/12/20 09:24:09;;;;;;;6.30;2.53;;;;;;;8.66;100.00;100978.91;5056624;28;20119;-85
2022/12/20 09:26:35;;;;;;;8.73;2.47;;;;;;;8.71;100.00;100981.84;5056354;28;20530;-85
2022/12/20 09:29:01;;;;;;;7.50;3.60;;;;;;;8.72;100.00;100972.69;5055992;28;20282;-84
2022/12/20 09:31:27;;;;;;;5.50;2.60;;;;;;;8.77;100.00;100990.00;5039356;28;20492;-84
2022/12/20 09:33:55;;;;;;;3.63;2.28;;;;;;;8.78;100.00;100985.41;5055695;28;20024;-84
2022/12/20 09:36:22;;;;;;;6.30;2.55;;;;;;;8.79;100.00;100981.69;5055905;28;20099;-84
2022/12/20 09:38:48;;;;;;;6.50;2.20;;;;;;;8.83;100.00;100979.41;5055242;28;20025;-85
2022/12/20 09:41:33;;;;;;;4.40;1.90;;;;;;;8.82;100.00;100984.00;5055807;28;20127;-84
2022/12/20 09:44:10;;;;;;;5.57;2.40;;;;;;;8.88;100.00;100977.78;5056227;28;20158;-84
2022/12/20 09:46:37;;;;;;;3.78;2.10;;;;;;;8.83;100.00;100976.69;5055413;28;20032;-84
2022/12/20 09:49:02;;;;;;;6.25;2.35;;;;;;;8.85;100.00;100986.28;5055604;28;20048;-85
2022/12/20 09:51:54;;;;;;;6.77;2.30;;;;;;;8.84;100.00;100984.59;5055887;28;20039;-84
2022/12/20 09:54:38;;;;;;;3.95;2.15;;;;;;;8.83;100.00;100984.81;5074315;28;20028;-84
2022/12/20 09:57:57;;;;;;;6.50;2.00;;;;;;;8.84;100.00;100987.31;5073356;28;20032;-84
2022/12/20 10:00:25;;;;;;;4.68;2.20;;;;;;;8.86;100.00;100982.56;5050304;28;20066;-84
2022/12/20 10:02:50;;;;;;;6.53;2.08;;;;;;;8.86;100.00;100981.69;5055672;28;20029;-84
2022/12/20 10:05:35;;;;;;;4.97;2.50;;;;;;;8.88;100.00;100972.34;5055144;28;20029;-84
2022/12/20 10:08:16;;;;;;;3.63;2.00;;;;;;;8.91;100.00;100973.84;5073373;28;20035;-83
2022/12/20 10:10:51;;;;;;;6.63;1.98;;;;;;;8.97;100.00;100970.31;5055114;28;20095;-84
2022/12/20 10:13:34;;;;;;;3.63;1.90;;;;;;;8.99;100.00;100975.53;5054943;28;20040;-84
2022/12/20 10:16:20;;;;;;;6.70;2.42;;;;;;;9.03;100.00;100971.38;5073592;28;20119;-85
2022/12/20 10:19:07;;;;;;;2.65;1.92;;;;;;;9.04;100.00;100968.47;5054467;28;20047;-84
2022/12/20 10:22:05;;;;;;;4.10;2.00;;;;;;;9.08;100.00;100977.00;5055336;28;20044;-84
2022/12/20 10:24:33;;;;;;;5.13;2.00;;;;;;;9.14;100.00;100976.22;5055272;28;20035;-84
2022/12/20 10:27:13;;;;;;;4.45;1.83;;;;;;;9.17;100.00;100978.53;5055353;28;20465;-84
2022/12/20 10:29:42;;;;;;;4.63;2.20;;;;;;;9.26;100.00;100980.00;5056113;28;20036;-85
2022/12/20 10:32:21;;;;;;;7.28;2.10;;;;;;;9.25;100.00;100982.91;5038734;28;20029;-84
2022/12/20 10:35:21;;;;;;;5.10;2.30;;;;;;;9.32;100.00;100975.66;5073310;28;20055;-84
2022/12/20 10:38:11;;;;;;;5.22;2.78;;;;;;;9.26;100.00;100980.00;5023284;28;20036;-83
2022/12/20 10:40:45;;;;;;;4.53;2.63;;;;;;;9.23;100.00;100969.59;5055078;28;20082;-84
2022/12/20 10:43:45;;;;;;;6.38;2.30;;;;;;;9.26;100.00;100961.06;5055425;28;20037;-83
2022/12/20 10:46:17;;;;;;;4.70;2.88;;;;;;;9.25;100.00;100963.97;5055495;28;20025;-84
2022/12/20 10:48:45;;;;;;;9.10;2.85;;;;;;;9.18;100.00;100961.22;5055272;28;20052;-85
2022/12/20 10:51:14;;;;;;;7.53;3.97;;;;;;;9.18;100.00;100954.97;5059232;28;20349;-87
2022/12/20 10:54:00;;;;;;;10.55;5.30;;;;;;;9.16;100.00;100954.38;5059135;28;20384;-87
2022/12/20 10:56:31;;;;;;;9.90;4.43;;;;;;;9.13;100.00;100952.88;5058836;28;20120;-87
2022/12/20 10:59:22;;;;;;;7.80;3.80;;;;;;;9.13;100.00;100947.47;5058527;28;20028;-84
2022/12/20 11:01:52;;;;;;;6.68;3.35;;;;;;;9.09;100.00;100948.91;5059106;28;20050;-83
2022/12/20 11:04:30;;;;;;;7.70;3.65;;;;;;;9.07;100.00;100946.41;5042986;28;20368;-84
2022/12/20 11:06:56;;;;;;;7.38;3.38;;;;;;;9.12;100.00;100951.22;5058448;28;20365;-84
2022/12/20 11:09:46;;;;;;;8.07;3.33;;;;;;;9.10;100.00;100943.28;5076593;28;20034;-84
2022/12/20 11:12:14;;;;;;;10.55;3.63;;;;;;;9.10;100.00;100945.19;5057799;28;20078;-84
2022/12/20 11:14:42;;;;;;;7.55;3.65;;;;;;;9.07;100.00;100943.72;5058902;28;20048;-85
2022/12/20 11:17:32;;;;;;;7.80;3.58;;;;;;;9.08;100.00;100947.25;5058200;28;20054;-85
2022/12/20 11:20:33;;;;;;;7.15;3.50;;;;;;;9.06;100.00;100942.03;5058787;28;20047;-84
2022/12/20 11:23:21;;;;;;;8.40;4.05;;;;;;;9.07;100.00;100935.59;5058448;28;20036;-84
2022/12/20 11:26:04;;;;;;;6.55;3.72;;;;;;;9.13;100.00;100939.34;5058351;28;20460;-84
2022/12/20 11:28:41;;;;;;;6.60;3.50;;;;;;;9.07;100.00;100932.06;5058729;28;20037;-84
2022/12/20 11:31:26;;;;;;;9.32;3.92;;;;;;;9.07;100.00;100934.75;5076556;28;20028;-84
2022/12/20 11:34:05;;;;;;;8.40;4.00;;;;;;;9.08;100.00;100952.66;5058548;28;20037;-84
2022/12/20 11:36:46;;;;;;;10.68;4.75;;;;;;;9.12;100.00;100933.13;5076159;28;20067;-84
2022/12/20 11:39:34;;;;;;;10.82;4.78;;;;;;;9.09;100.00;100930.81;5057958;28;20161;-84
2022/12/20 11:42:09;;;;;;;13.35;5.10;;;;;;;9.08;100.00;100922.88;5058657;28;20131;-85
2022/12/20 11:44:48;;;;;;;16.63;6.10;;;;;;;9.06;100.00;100924.97;5058736;28;20100;-85
2022/12/20 11:47:58;;;;;;;13.02;5.40;;;;;;;9.04;100.00;100908.94;5076064;28;20028;-85
2022/12/20 11:51:11;;;;;;;13.07;5.68;;;;;;;9.07;100.00;100921.22;4958840;28;20141;-84
2022/12/20 11:53:39;;;;;;;14.63;6.00;;;;;;;9.09;100.00;100903.75;4942443;28;20037;-85
2022/12/20 11:56:24;;;;;;;11.57;6.10;;;;;;;9.08;100.00;100910.19;5041957;28;20132;-83
2022/12/20 11:58:55;;;;;;;15.38;5.72;;;;;;;9.09;100.00;100914.59;5057376;28;20384;-84
2022/12/20 12:01:37;;;;;;;12.13;6.15;;;;;;;9.12;100.00;100902.50;5057117;28;20024;-84
2022/12/20 12:04:24;;;;;;;12.48;6.32;;;;;;;9.12;100.00;100906.06;5057928;28;20115;-84